sensor_id;sensor_type;location;lat;lon;timestamp;pressure;altitude;pressure_sealevel;temperature
24740;BMP280;45234;48.148;17.128;2023-04-24T00:00:36;99030.31;;;15.15
24740;BMP280;45234;48.148;17.128;2023-04-24T00:03:07;99029.50;;;15.15
24740;BMP280;45234;48.148;17.128;2023-04-24T00:05:34;99027.44;;;15.17
24740;BMP280;45234;48.148;17.128;2023-04-24T00:08:01;99039.25;;;15.25
24740;BMP280;45234;48.148;17.128;2023-04-24T00:10:29;99030.59;;;15.19
24740;BMP280;45234;48.148;17.128;2023-04-24T00:12:56;99021.94;;;15.13
24740;BMP280;45234;48.148;17.128;2023-04-24T00:15:23;99023.25;;;15.16
24740;BMP280;45234;48.148;17.128;2023-04-24T00:17:50;99012.28;;;15.14
24740;BMP280;45234;48.148;17.128;2023-04-24T00:20:18;99018.28;;;15.14
24740;BMP280;45234;48.148;17.128;2023-04-24T00:22:45;99006.09;;;15.20
24740;BMP280;45234;48.148;17.128;2023-04-24T00:25:12;99007.34;;;15.18
24740;BMP280;45234;48.148;17.128;2023-04-24T00:27:39;99013.84;;;15.10
24740;BMP280;45234;48.148;17.128;2023-04-24T00:30:07;99001.28;;;15.12
24740;BMP280;45234;48.148;17.128;2023-04-24T00:32:37;99001.75;;;15.04
24740;BMP280;45234;48.148;17.128;2023-04-24T00:35:05;99002.53;;;15.04
24740;BMP280;45234;48.148;17.128;2023-04-24T00:37:33;98997.31;;;15.04
24740;BMP280;45234;48.148;17.128;2023-04-24T00:40:00;98997.03;;;15.01
24740;BMP280;45234;48.148;17.128;2023-04-24T00:42:29;98992.09;;;15.04
24740;BMP280;45234;48.148;17.128;2023-04-24T00:44:57;98988.47;;;15.05
24740;BMP280;45234;48.148;17.128;2023-04-24T00:47:25;98986.88;;;15.04
24740;BMP280;45234;48.148;17.128;2023-04-24T00:49:52;98975.91;;;15.02
24740;BMP280;45234;48.148;17.128;2023-04-24T00:52:19;98982.69;;;14.98
24740;BMP280;45234;48.148;17.128;2023-04-24T00:54:47;98978.25;;;14.99
24740;BMP280;45234;48.148;17.128;2023-04-24T00:57:14;98974.06;;;14.98
24740;BMP280;45234;48.148;17.128;2023-04-24T00:59:42;98967.47;;;14.95
24740;BMP280;45234;48.148;17.128;2023-04-24T01:02:10;98969.06;;;14.96
24740;BMP280;45234;48.148;17.128;2023-04-24T01:04:38;98964.34;;;14.93
24740;BMP280;45234;48.148;17.128;2023-04-24T01:07:06;98971.91;;;14.95
24740;BMP280;45234;48.148;17.128;2023-04-24T01:09:40;98976.38;;;14.94
24740;BMP280;45234;48.148;17.128;2023-04-24T01:12:09;98971.91;;;14.95
24740;BMP280;45234;48.148;17.128;2023-04-24T01:14:37;98979.50;;;14.96
24740;BMP280;45234;48.148;17.128;2023-04-24T01:17:04;98974.06;;;14.98
24740;BMP280;45234;48.148;17.128;2023-04-24T01:19:31;98965.38;;;14.92
24740;BMP280;45234;48.148;17.128;2023-04-24T01:21:59;98961.72;;;14.88
24740;BMP280;45234;48.148;17.128;2023-04-24T01:24:29;98971.09;;;14.89
24740;BMP280;45234;48.148;17.128;2023-04-24T01:26:56;98961.44;;;14.90
24740;BMP280;45234;48.148;17.128;2023-04-24T01:29:23;98958.59;;;14.91
24740;BMP280;45234;48.148;17.128;2023-04-24T01:31:51;98961.38;;;14.85
24740;BMP280;45234;48.148;17.128;2023-04-24T01:34:18;98955.38;;;14.84
24740;BMP280;45234;48.148;17.128;2023-04-24T01:36:46;98946.59;;;14.90
24740;BMP280;45234;48.148;17.128;2023-04-24T01:39:13;98948.13;;;14.86
24740;BMP280;45234;48.148;17.128;2023-04-24T01:41:42;98948.34;;;14.85
24740;BMP280;45234;48.148;17.128;2023-04-24T01:44:08;98952.75;;;14.79
24740;BMP280;45234;48.148;17.128;2023-04-24T01:46:35;98949.09;;;14.80
24740;BMP280;45234;48.148;17.128;2023-04-24T01:49:03;98942.25;;;14.74
24740;BMP280;45234;48.148;17.128;2023-04-24T01:51:30;98938.06;;;14.73
24740;BMP280;45234;48.148;17.128;2023-04-24T01:53:58;98936.00;;;14.75
24740;BMP280;45234;48.148;17.128;2023-04-24T01:56:25;98932.84;;;14.73
24740;BMP280;45234;48.148;17.128;2023-04-24T01:58:53;98933.38;;;14.70
24740;BMP280;45234;48.148;17.128;2023-04-24T02:01:20;98931.78;;;14.69
24740;BMP280;45234;48.148;17.128;2023-04-24T02:03:47;98929.44;;;14.67
24740;BMP280;45234;48.148;17.128;2023-04-24T02:06:15;98929.66;;;14.66
24740;BMP280;45234;48.148;17.128;2023-04-24T02:08:42;98925.53;;;14.65
24740;BMP280;45234;48.148;17.128;2023-04-24T02:11:10;98929.44;;;14.67
24740;BMP280;45234;48.148;17.128;2023-04-24T02:13:37;98917.22;;;14.73
24740;BMP280;45234;48.148;17.128;2023-04-24T02:16:04;98915.59;;;14.67
24740;BMP280;45234;48.148;17.128;2023-04-24T02:18:51;98920.75;;;14.62
24740;BMP280;45234;48.148;17.128;2023-04-24T02:21:17;98919.16;;;14.56
24740;BMP280;45234;48.148;17.128;2023-04-24T02:23:44;98917.59;;;14.60
24740;BMP280;45234;48.148;17.128;2023-04-24T02:26:12;98924.69;;;14.64
24740;BMP280;45234;48.148;17.128;2023-04-24T02:28:39;98921.53;;;14.62
24740;BMP280;45234;48.148;17.128;2023-04-24T02:31:06;98919.25;;;14.66
24740;BMP280;45234;48.148;17.128;2023-04-24T02:33:33;98930.16;;;14.63
24740;BMP280;45234;48.148;17.128;2023-04-24T02:36:00;98920.75;;;14.62
24740;BMP280;45234;48.148;17.128;2023-04-24T02:38:27;98910.31;;;14.57
24740;BMP280;45234;48.148;17.128;2023-04-24T02:40:54;98922.53;;;14.56
24740;BMP280;45234;48.148;17.128;2023-04-24T02:43:21;98917.28;;;14.51
24740;BMP280;45234;48.148;17.128;2023-04-24T02:45:47;98913.09;;;14.50
24740;BMP280;45234;48.148;17.128;2023-04-24T02:48:15;98914.63;;;14.46
24740;BMP280;45234;48.148;17.128;2023-04-24T02:50:43;98910.72;;;14.49
24740;BMP280;45234;48.148;17.128;2023-04-24T02:53:10;98904.94;;;14.41
24740;BMP280;45234;48.148;17.128;2023-04-24T02:55:37;98905.25;;;14.45
24740;BMP280;45234;48.148;17.128;2023-04-24T02:58:04;98900.19;;;14.38
24740;BMP280;45234;48.148;17.128;2023-04-24T03:00:32;98898.34;;;14.34
24740;BMP280;45234;48.148;17.128;2023-04-24T03:02:59;98898.09;;;14.35
24740;BMP280;45234;48.148;17.128;2023-04-24T03:05:27;98899.13;;;14.34
24740;BMP280;45234;48.148;17.128;2023-04-24T03:07:54;98895.16;;;14.32
24740;BMP280;45234;48.148;17.128;2023-04-24T03:10:20;98894.13;;;14.33
24740;BMP280;45234;48.148;17.128;2023-04-24T03:12:49;98893.94;;;14.34
24740;BMP280;45234;48.148;17.128;2023-04-24T03:15:17;98897.06;;;14.36
24740;BMP280;45234;48.148;17.128;2023-04-24T03:17:44;98893.13;;;14.34
24740;BMP280;45234;48.148;17.128;2023-04-24T03:20:12;98890.28;;;14.35
24740;BMP280;45234;48.148;17.128;2023-04-24T03:22:39;98887.41;;;14.37
24740;BMP280;45234;48.148;17.128;2023-04-24T03:25:08;98890.28;;;14.35
24740;BMP280;45234;48.148;17.128;2023-04-24T03:27:37;98895.53;;;14.40
24740;BMP280;45234;48.148;17.128;2023-04-24T03:30:11;98895.03;;;14.43
24740;BMP280;45234;48.148;17.128;2023-04-24T03:32:45;98890.84;;;14.42
24740;BMP280;45234;48.148;17.128;2023-04-24T03:35:16;98884.59;;;14.43
24740;BMP280;45234;48.148;17.128;2023-04-24T03:37:43;98893.03;;;14.51
24740;BMP280;45234;48.148;17.128;2023-04-24T03:40:30;98891.44;;;14.50
24740;BMP280;45234;48.148;17.128;2023-04-24T03:42:58;98901.44;;;14.58
24740;BMP280;45234;48.148;17.128;2023-04-24T03:45:25;98900.91;;;14.56
24740;BMP280;45234;48.148;17.128;2023-04-24T03:47:52;98894.66;;;14.57
24740;BMP280;45234;48.148;17.128;2023-04-24T03:50:19;98890.22;;;14.57
24740;BMP280;45234;48.148;17.128;2023-04-24T03:52:46;98887.88;;;14.56
24740;BMP280;45234;48.148;17.128;2023-04-24T03:55:27;98885.47;;;14.54
24740;BMP280;45234;48.148;17.128;2023-04-24T03:57:54;98894.06;;;14.50
24740;BMP280;45234;48.148;17.128;2023-04-24T04:00:22;98889.88;;;14.49
24740;BMP280;45234;48.148;17.128;2023-04-24T04:03:00;98886.75;;;14.47
24740;BMP280;45234;48.148;17.128;2023-04-24T04:05:28;98890.38;;;14.46
24740;BMP280;45234;48.148;17.128;2023-04-24T04:07:56;98888.81;;;14.45
24740;BMP280;45234;48.148;17.128;2023-04-24T04:10:23;98886.94;;;14.40
24740;BMP280;45234;48.148;17.128;2023-04-24T04:12:50;98888.72;;;14.34
24740;BMP280;45234;48.148;17.128;2023-04-24T04:15:17;98890.97;;;14.31
24740;BMP280;45234;48.148;17.128;2023-04-24T04:17:44;98898.81;;;14.31
24740;BMP280;45234;48.148;17.128;2023-04-24T04:20:12;98894.63;;;14.30
24740;BMP280;45234;48.148;17.128;2023-04-24T04:22:40;98893.94;;;14.34
24740;BMP280;45234;48.148;17.128;2023-04-24T04:25:14;98886.38;;;14.38
24740;BMP280;45234;48.148;17.128;2023-04-24T04:27:42;98901.78;;;14.39
24740;BMP280;45234;48.148;17.128;2023-04-24T04:30:11;98902.06;;;14.43
24740;BMP280;45234;48.148;17.128;2023-04-24T04:32:51;98901.09;;;14.49
24740;BMP280;45234;48.148;17.128;2023-04-24T04:35:18;98897.19;;;14.47
24740;BMP280;45234;48.148;17.128;2023-04-24T04:37:45;98891.19;;;14.51
24740;BMP280;45234;48.148;17.128;2023-04-24T04:40:40;98885.75;;;14.53
24740;BMP280;45234;48.148;17.128;2023-04-24T04:43:07;98899.63;;;14.58
24740;BMP280;45234;48.148;17.128;2023-04-24T04:45:41;98894.75;;;14.67
24740;BMP280;45234;48.148;17.128;2023-04-24T04:48:37;98889.06;;;14.75
24740;BMP280;45234;48.148;17.128;2023-04-24T04:51:06;98895.88;;;14.76
24740;BMP280;45234;48.148;17.128;2023-04-24T04:53:33;98896.97;;;14.85
24740;BMP280;45234;48.148;17.128;2023-04-24T04:56:01;98887.38;;;14.91
24740;BMP280;45234;48.148;17.128;2023-04-24T04:58:36;98892.41;;;14.97
24740;BMP280;45234;48.148;17.128;2023-04-24T05:01:04;98891.66;;;15.07
24740;BMP280;45234;48.148;17.128;2023-04-24T05:03:37;98899.00;;;15.10
24740;BMP280;45234;48.148;17.128;2023-04-24T05:06:09;98893.03;;;15.14
24740;BMP280;45234;48.148;17.128;2023-04-24T05:08:40;98895.69;;;15.20
24740;BMP280;45234;48.148;17.128;2023-04-24T05:11:11;98891.59;;;15.34
24740;BMP280;45234;48.148;17.128;2023-04-24T05:13:40;98889.53;;;15.46
24740;BMP280;45234;48.148;17.128;2023-04-24T05:16:16;98899.81;;;15.63
24740;BMP280;45234;48.148;17.128;2023-04-24T05:18:43;98889.94;;;15.80
24740;BMP280;45234;48.148;17.128;2023-04-24T05:21:13;98902.78;;;15.81
24740;BMP280;45234;48.148;17.128;2023-04-24T05:23:43;98907.03;;;15.93
24740;BMP280;45234;48.148;17.128;2023-04-24T05:26:14;98908.63;;;16.09
24740;BMP280;45234;48.148;17.128;2023-04-24T05:28:42;98909.44;;;16.19
24740;BMP280;45234;48.148;17.128;2023-04-24T05:31:11;98915.22;;;16.32
24740;BMP280;45234;48.148;17.128;2023-04-24T05:33:39;98916.28;;;16.36
24740;BMP280;45234;48.148;17.128;2023-04-24T05:36:06;98913.91;;;16.39
24740;BMP280;45234;48.148;17.128;2023-04-24T05:38:35;98914.47;;;16.46
24740;BMP280;45234;48.148;17.128;2023-04-24T05:41:02;98914.72;;;16.70
24740;BMP280;45234;48.148;17.128;2023-04-24T05:43:29;98922.81;;;17.24
24740;BMP280;45234;48.148;17.128;2023-04-24T05:45:56;98923.16;;;17.77
24740;BMP280;45234;48.148;17.128;2023-04-24T05:48:23;98923.50;;;18.09
24740;BMP280;45234;48.148;17.128;2023-04-24T05:50:50;98923.56;;;18.04
24740;BMP280;45234;48.148;17.128;2023-04-24T05:53:19;98928.84;;;17.94
24740;BMP280;45234;48.148;17.128;2023-04-24T05:55:47;98918.97;;;17.71
24740;BMP280;45234;48.148;17.128;2023-04-24T05:58:15;98930.06;;;17.48
24740;BMP280;45234;48.148;17.128;2023-04-24T06:00:42;98930.09;;;17.38
24740;BMP280;45234;48.148;17.128;2023-04-24T06:03:11;98932.75;;;17.32
24740;BMP280;45234;48.148;17.128;2023-04-24T06:05:39;98930.13;;;17.32
24740;BMP280;45234;48.148;17.128;2023-04-24T06:08:06;98933.75;;;17.47
24740;BMP280;45234;48.148;17.128;2023-04-24T06:10:37;98927.66;;;17.66
24740;BMP280;45234;48.148;17.128;2023-04-24T06:13:06;98921.09;;;17.69
24740;BMP280;45234;48.148;17.128;2023-04-24T06:15:35;98921.59;;;17.71
24740;BMP280;45234;48.148;17.128;2023-04-24T06:18:06;98924.38;;;18.39
24740;BMP280;45234;48.148;17.128;2023-04-24T06:20:35;98928.00;;;19.30
24740;BMP280;45234;48.148;17.128;2023-04-24T06:23:02;98919.47;;;19.85
24740;BMP280;45234;48.148;17.128;2023-04-24T06:25:32;98918.47;;;20.19
24740;BMP280;45234;48.148;17.128;2023-04-24T06:27:59;98928.69;;;20.01
24740;BMP280;45234;48.148;17.128;2023-04-24T06:30:28;98921.69;;;19.97
24740;BMP280;45234;48.148;17.128;2023-04-24T06:32:56;98925.88;;;19.98
24740;BMP280;45234;48.148;17.128;2023-04-24T06:35:36;98927.66;;;19.84
24740;BMP280;45234;48.148;17.128;2023-04-24T06:38:05;98921.09;;;20.00
24740;BMP280;45234;48.148;17.128;2023-04-24T06:40:31;98919.91;;;20.43
24740;BMP280;45234;48.148;17.128;2023-04-24T06:42:58;98923.50;;;20.80
24740;BMP280;45234;48.148;17.128;2023-04-24T06:45:26;98920.00;;;20.98
24740;BMP280;45234;48.148;17.128;2023-04-24T06:47:53;98915.41;;;21.45
24740;BMP280;45234;48.148;17.128;2023-04-24T06:50:22;98924.16;;;21.68
24740;BMP280;45234;48.148;17.128;2023-04-24T06:52:49;98914.00;;;21.75
24740;BMP280;45234;48.148;17.128;2023-04-24T06:55:16;98921.22;;;21.69
24740;BMP280;45234;48.148;17.128;2023-04-24T06:57:43;98913.34;;;21.42
24740;BMP280;45234;48.148;17.128;2023-04-24T07:00:11;98906.72;;;20.76
24740;BMP280;45234;48.148;17.128;2023-04-24T07:02:38;98908.88;;;20.28
24740;BMP280;45234;48.148;17.128;2023-04-24T07:05:06;98908.72;;;20.19
24740;BMP280;45234;48.148;17.128;2023-04-24T07:07:35;98902.09;;;20.22
24740;BMP280;45234;48.148;17.128;2023-04-24T07:10:06;98895.63;;;20.47
24740;BMP280;45234;48.148;17.128;2023-04-24T07:12:33;98896.66;;;20.64
24740;BMP280;45234;48.148;17.128;2023-04-24T07:15:00;98895.94;;;20.45
24740;BMP280;45234;48.148;17.128;2023-04-24T07:17:31;98891.88;;;20.66
24740;BMP280;45234;48.148;17.128;2023-04-24T07:19:58;98902.25;;;21.17
24740;BMP280;45234;48.148;17.128;2023-04-24T07:22:24;98904.41;;;21.79
24740;BMP280;45234;48.148;17.128;2023-04-24T07:24:51;98905.78;;;21.98
24740;BMP280;45234;48.148;17.128;2023-04-24T07:27:18;98911.47;;;22.67
24740;BMP280;45234;48.148;17.128;2023-04-24T07:29:45;98918.66;;;23.32
24740;BMP280;45234;48.148;17.128;2023-04-24T07:32:12;98915.44;;;23.69
24740;BMP280;45234;48.148;17.128;2023-04-24T07:34:39;98921.19;;;23.80
24740;BMP280;45234;48.148;17.128;2023-04-24T07:37:07;98921.97;;;23.46
24740;BMP280;45234;48.148;17.128;2023-04-24T07:39:34;98928.69;;;22.96
24740;BMP280;45234;48.148;17.128;2023-04-24T07:42:01;98933.09;;;22.47
24740;BMP280;45234;48.148;17.128;2023-04-24T07:44:29;98926.22;;;22.68
24740;BMP280;45234;48.148;17.128;2023-04-24T07:46:57;98924.09;;;22.48
24740;BMP280;45234;48.148;17.128;2023-04-24T07:49:28;98923.78;;;22.41
24740;BMP280;45234;48.148;17.128;2023-04-24T07:51:56;98924.63;;;22.50
24740;BMP280;45234;48.148;17.128;2023-04-24T07:54:24;98931.78;;;22.36
24740;BMP280;45234;48.148;17.128;2023-04-24T07:56:53;98932.84;;;21.68
24740;BMP280;45234;48.148;17.128;2023-04-24T07:59:21;98933.38;;;21.56
24740;BMP280;45234;48.148;17.128;2023-04-24T08:01:53;98934.16;;;21.30
24740;BMP280;45234;48.148;17.128;2023-04-24T08:04:21;98945.59;;;21.11
24740;BMP280;45234;48.148;17.128;2023-04-24T08:06:49;98947.81;;;21.04
24740;BMP280;45234;48.148;17.128;2023-04-24T08:09:17;98942.94;;;20.98
24740;BMP280;45234;48.148;17.128;2023-04-24T08:11:44;98933.97;;;20.99
24740;BMP280;45234;48.148;17.128;2023-04-24T08:14:11;98943.03;;;21.06
24740;BMP280;45234;48.148;17.128;2023-04-24T08:16:40;98948.50;;;21.10
24740;BMP280;45234;48.148;17.128;2023-04-24T08:19:08;98941.47;;;21.05
24740;BMP280;45234;48.148;17.128;2023-04-24T08:21:36;98948.41;;;21.01
24740;BMP280;45234;48.148;17.128;2023-04-24T08:24:03;98947.72;;;21.09
24740;BMP280;45234;48.148;17.128;2023-04-24T08:26:33;98940.31;;;21.25
24740;BMP280;45234;48.148;17.128;2023-04-24T08:29:00;98937.19;;;21.37
24740;BMP280;45234;48.148;17.128;2023-04-24T08:31:28;98936.31;;;21.55
24740;BMP280;45234;48.148;17.128;2023-04-24T08:33:55;98945.53;;;21.52
24740;BMP280;45234;48.148;17.128;2023-04-24T08:36:25;98946.34;;;21.67
24740;BMP280;45234;48.148;17.128;2023-04-24T08:39:10;98939.63;;;21.83
24740;BMP280;45234;48.148;17.128;2023-04-24T08:41:38;98949.66;;;21.94
24740;BMP280;45234;48.148;17.128;2023-04-24T08:44:05;98947.47;;;21.74
24740;BMP280;45234;48.148;17.128;2023-04-24T08:46:37;98941.47;;;21.60
24740;BMP280;45234;48.148;17.128;2023-04-24T08:49:05;98947.72;;;21.64
24740;BMP280;45234;48.148;17.128;2023-04-24T08:51:33;98956.13;;;21.39
24740;BMP280;45234;48.148;17.128;2023-04-24T08:54:00;98955.94;;;21.08
24740;BMP280;45234;48.148;17.128;2023-04-24T08:56:28;98950.25;;;20.55
24740;BMP280;45234;48.148;17.128;2023-04-24T08:58:56;98947.69;;;20.17
24740;BMP280;45234;48.148;17.128;2023-04-24T09:01:24;98944.47;;;19.83
24740;BMP280;45234;48.148;17.128;2023-04-24T09:03:52;98946.47;;;19.48
24740;BMP280;45234;48.148;17.128;2023-04-24T09:06:21;98952.69;;;19.34
24740;BMP280;45234;48.148;17.128;2023-04-24T09:08:50;98951.50;;;19.21
24740;BMP280;45234;48.148;17.128;2023-04-24T09:11:22;98949.56;;;19.03
24740;BMP280;45234;48.148;17.128;2023-04-24T09:13:51;98956.53;;;18.60
24740;BMP280;45234;48.148;17.128;2023-04-24T09:16:19;98956.88;;;18.43
24740;BMP280;45234;48.148;17.128;2023-04-24T09:18:46;98961.06;;;18.49
24740;BMP280;45234;48.148;17.128;2023-04-24T09:21:12;98970.56;;;18.40
24740;BMP280;45234;48.148;17.128;2023-04-24T09:23:39;98972.72;;;18.23
24740;BMP280;45234;48.148;17.128;2023-04-24T09:26:09;98967.81;;;18.11
24740;BMP280;45234;48.148;17.128;2023-04-24T09:28:41;98963.97;;;17.98
24740;BMP280;45234;48.148;17.128;2023-04-24T09:31:12;98973.38;;;18.04
24740;BMP280;45234;48.148;17.128;2023-04-24T09:33:40;98968.66;;;18.06
24740;BMP280;45234;48.148;17.128;2023-04-24T09:36:30;98973.97;;;17.86
24740;BMP280;45234;48.148;17.128;2023-04-24T09:39:03;98976.84;;;17.85
24740;BMP280;45234;48.148;17.128;2023-04-24T09:41:32;98970.34;;;17.77
24740;BMP280;45234;48.148;17.128;2023-04-24T09:44:15;98977.19;;;17.68
24740;BMP280;45234;48.148;17.128;2023-04-24T09:46:44;98976.59;;;17.86
24740;BMP280;45234;48.148;17.128;2023-04-24T09:49:13;98974.72;;;17.97
24740;BMP280;45234;48.148;17.128;2023-04-24T09:51:42;98985.22;;;17.97
24740;BMP280;45234;48.148;17.128;2023-04-24T09:54:17;98984.44;;;17.91
24740;BMP280;45234;48.148;17.128;2023-04-24T09:56:46;98982.38;;;17.88
24740;BMP280;45234;48.148;17.128;2023-04-24T09:59:16;98991.53;;;17.81
24740;BMP280;45234;48.148;17.128;2023-04-24T10:01:43;98984.50;;;17.76
24740;BMP280;45234;48.148;17.128;2023-04-24T10:04:19;98991.56;;;17.70
24740;BMP280;45234;48.148;17.128;2023-04-24T10:06:48;98988.94;;;17.70
24740;BMP280;45234;48.148;17.128;2023-04-24T10:09:17;98985.88;;;17.53
24740;BMP280;45234;48.148;17.128;2023-04-24T10:11:48;98987.16;;;17.56
24740;BMP280;45234;48.148;17.128;2023-04-24T10:14:18;98999.75;;;17.59
24740;BMP280;45234;48.148;17.128;2023-04-24T10:16:47;99005.47;;;17.61
24740;BMP280;45234;48.148;17.128;2023-04-24T10:19:15;98994.22;;;17.55
24740;BMP280;45234;48.148;17.128;2023-04-24T10:21:44;99007.84;;;17.57
24740;BMP280;45234;48.148;17.128;2023-04-24T10:24:18;99016.50;;;17.58
24740;BMP280;45234;48.148;17.128;2023-04-24T10:26:46;99016.81;;;17.31
24740;BMP280;45234;48.148;17.128;2023-04-24T10:29:18;99010.03;;;17.20
24740;BMP280;45234;48.148;17.128;2023-04-24T10:31:45;99015.75;;;17.12
24740;BMP280;45234;48.148;17.128;2023-04-24T10:34:16;99017.09;;;17.09
24740;BMP280;45234;48.148;17.128;2023-04-24T10:36:48;99017.09;;;17.19
24740;BMP280;45234;48.148;17.128;2023-04-24T10:39:17;99018.13;;;17.23
24740;BMP280;45234;48.148;17.128;2023-04-24T10:41:54;99032.03;;;17.09
24740;BMP280;45234;48.148;17.128;2023-04-24T10:44:25;99023.34;;;17.03
24740;BMP280;45234;48.148;17.128;2023-04-24T10:47:02;99028.59;;;17.03
24740;BMP280;45234;48.148;17.128;2023-04-24T10:49:31;99027.25;;;16.95
24740;BMP280;45234;48.148;17.128;2023-04-24T10:52:02;99026.00;;;16.98
24740;BMP280;45234;48.148;17.128;2023-04-24T10:59:51;99038.53;;;17.06
24740;BMP280;45234;48.148;17.128;2023-04-24T11:02:39;99033.28;;;17.16
24740;BMP280;45234;48.148;17.128;2023-04-24T11:05:07;99034.34;;;17.30
24740;BMP280;45234;48.148;17.128;2023-04-24T11:08:12;99038.84;;;17.20
24740;BMP280;45234;48.148;17.128;2023-04-24T11:10:47;99031.75;;;17.25
24740;BMP280;45234;48.148;17.128;2023-04-24T11:13:24;99037.50;;;17.22
24740;BMP280;45234;48.148;17.128;2023-04-24T11:18:44;99028.59;;;17.03
24740;BMP280;45234;48.148;17.128;2023-04-24T11:21:18;99033.81;;;17.08
24740;BMP280;45234;48.148;17.128;2023-04-24T11:23:46;99038.53;;;17.16
24740;BMP280;45234;48.148;17.128;2023-04-24T11:26:18;99034.88;;;17.22
24740;BMP280;45234;48.148;17.128;2023-04-24T11:28:47;99042.22;;;17.25
24740;BMP280;45234;48.148;17.128;2023-04-24T11:31:38;99032.78;;;16.99
24740;BMP280;45234;48.148;17.128;2023-04-24T11:34:13;99034.28;;;16.70
24740;BMP280;45234;48.148;17.128;2023-04-24T11:36:43;99026.16;;;16.56
24740;BMP280;45234;48.148;17.128;2023-04-24T11:39:10;99033.75;;;16.63
24740;BMP280;45234;48.148;17.128;2023-04-24T11:41:38;99030.34;;;16.62
24740;BMP280;45234;48.148;17.128;2023-04-24T11:44:08;99035.84;;;16.60
24740;BMP280;45234;48.148;17.128;2023-04-24T11:46:35;99029.84;;;16.70
24740;BMP280;45234;48.148;17.128;2023-04-24T11:49:07;99027.75;;;16.72
24740;BMP280;45234;48.148;17.128;2023-04-24T11:51:34;99024.63;;;16.85
24740;BMP280;45234;48.148;17.128;2023-04-24T11:54:16;99027.00;;;17.17
24740;BMP280;45234;48.148;17.128;2023-04-24T11:56:47;99036.94;;;17.46
24740;BMP280;45234;48.148;17.128;2023-04-24T11:59:15;99019.59;;;17.75
24740;BMP280;45234;48.148;17.128;2023-04-24T12:01:47;99038.72;;;17.86
24740;BMP280;45234;48.148;17.128;2023-04-24T12:04:17;99025.56;;;18.01
24740;BMP280;45234;48.148;17.128;2023-04-24T12:07:03;99032.13;;;17.98
24740;BMP280;45234;48.148;17.128;2023-04-24T12:09:42;99028.31;;;18.25
24740;BMP280;45234;48.148;17.128;2023-04-24T12:12:10;99026.13;;;18.47
24740;BMP280;45234;48.148;17.128;2023-04-24T12:14:55;99026.75;;;18.24
24740;BMP280;45234;48.148;17.128;2023-04-24T12:17:31;99024.28;;;17.98
24740;BMP280;45234;48.148;17.128;2023-04-24T12:20:03;99027.41;;;17.90
24740;BMP280;45234;48.148;17.128;2023-04-24T12:22:51;99022.78;;;17.67
24740;BMP280;45234;48.148;17.128;2023-04-24T12:25:26;99017.56;;;17.57
24740;BMP280;45234;48.148;17.128;2023-04-24T12:28:16;99018.91;;;17.24
24740;BMP280;45234;48.148;17.128;2023-04-24T12:30:44;99014.97;;;17.11
24740;BMP280;45234;48.148;17.128;2023-04-24T12:33:19;99029.91;;;17.01
24740;BMP280;45234;48.148;17.128;2023-04-24T12:35:48;99023.34;;;17.03
24740;BMP280;45234;48.148;17.128;2023-04-24T12:38:22;99024.94;;;16.94
24740;BMP280;45234;48.148;17.128;2023-04-24T12:41:13;99029.59;;;16.87
24740;BMP280;45234;48.148;17.128;2023-04-24T12:43:52;99024.13;;;16.93
24740;BMP280;45234;48.148;17.128;2023-04-24T12:46:19;99030.69;;;17.11
24740;BMP280;45234;48.148;17.128;2023-04-24T12:48:48;99031.47;;;17.17
24740;BMP280;45234;48.148;17.128;2023-04-24T12:51:15;99023.09;;;16.89
24740;BMP280;45234;48.148;17.128;2023-04-24T12:53:42;99019.66;;;16.74
24740;BMP280;45234;48.148;17.128;2023-04-24T12:56:09;99013.66;;;16.83
24740;BMP280;45234;48.148;17.128;2023-04-24T12:58:36;99018.13;;;16.88
24740;BMP280;45234;48.148;17.128;2023-04-24T13:01:03;99007.38;;;16.79
24740;BMP280;45234;48.148;17.128;2023-04-24T13:03:32;99013.34;;;16.65
24740;BMP280;45234;48.148;17.128;2023-04-24T13:05:59;99010.72;;;16.65
24740;BMP280;45234;48.148;17.128;2023-04-24T13:08:26;99010.22;;;16.63
24740;BMP280;45234;48.148;17.128;2023-04-24T13:10:53;99008.06;;;16.44
24740;BMP280;45234;48.148;17.128;2023-04-24T13:13:20;99002.78;;;16.29
24740;BMP280;45234;48.148;17.128;2023-04-24T13:15:47;98996.56;;;16.35
24740;BMP280;45234;48.148;17.128;2023-04-24T13:18:14;98991.81;;;16.22
24740;BMP280;45234;48.148;17.128;2023-04-24T13:20:42;98988.84;;;16.03
24740;BMP280;45234;48.148;17.128;2023-04-24T13:23:14;98994.09;;;16.03
24740;BMP280;45234;48.148;17.128;2023-04-24T13:25:42;99002.16;;;16.02
24740;BMP280;45234;48.148;17.128;2023-04-24T13:28:09;99000.78;;;15.84
24740;BMP280;45234;48.148;17.128;2023-04-24T13:30:37;98992.09;;;15.73
24740;BMP280;45234;48.148;17.128;2023-04-24T13:33:04;98998.44;;;15.82
24740;BMP280;45234;48.148;17.128;2023-04-24T13:35:32;98987.50;;;15.96
24740;BMP280;45234;48.148;17.128;2023-04-24T13:37:59;98999.06;;;16.10
24740;BMP280;45234;48.148;17.128;2023-04-24T13:40:28;98978.66;;;16.12
24740;BMP280;45234;48.148;17.128;2023-04-24T13:42:58;98987.28;;;16.07
24740;BMP280;45234;48.148;17.128;2023-04-24T13:45:25;98984.97;;;16.11
24740;BMP280;45234;48.148;17.128;2023-04-24T13:47:53;98976.84;;;16.12
24740;BMP280;45234;48.148;17.128;2023-04-24T13:50:21;98981.06;;;16.18
24740;BMP280;45234;48.148;17.128;2023-04-24T13:52:48;98983.16;;;16.16
24740;BMP280;45234;48.148;17.128;2023-04-24T13:55:17;98978.63;;;15.97
24740;BMP280;45234;48.148;17.128;2023-04-24T13:57:45;98971.28;;;15.88
24740;BMP280;45234;48.148;17.128;2023-04-24T14:00:13;98972.75;;;15.79
24740;BMP280;45234;48.148;17.128;2023-04-24T14:02:40;98973.56;;;15.80
24740;BMP280;45234;48.148;17.128;2023-04-24T14:05:07;98978.00;;;15.79
24740;BMP280;45234;48.148;17.128;2023-04-24T14:07:35;98960.81;;;15.88
24740;BMP280;45234;48.148;17.128;2023-04-24T14:10:02;98972.84;;;15.90
24740;BMP280;45234;48.148;17.128;2023-04-24T14:12:32;98969.94;;;15.91
24740;BMP280;45234;48.148;17.128;2023-04-24T14:14:59;98978.41;;;16.03
24740;BMP280;45234;48.148;17.128;2023-04-24T14:17:26;98975.00;;;16.08